sensor_id;sensor_type;location;lat;lon;timestamp;pressure;altitude;pressure_sealevel;temperature;humidity
53960;BME280;39866;48.638;-2.020;2022-07-01T00:01:28;101597.50;;;17.39;63.50
53960;BME280;39866;48.638;-2.020;2022-07-01T00:03:54;101586.06;;;17.33;63.05
53960;BME280;39866;48.638;-2.020;2022-07-01T00:06:20;101595.75;;;17.38;63.02
53960;BME280;39866;48.638;-2.020;2022-07-01T00:08:46;101588.75;;;17.33;63.35
53960;BME280;39866;48.638;-2.020;2022-07-01T00:11:12;101593.16;;;17.36;63.27
53960;BME280;39866;48.638;-2.020;2022-07-01T00:13:37;101605.03;;;17.30;62.96
53960;BME280;39866;48.638;-2.020;2022-07-01T00:16:03;101593.28;;;17.33;62.86
53960;BME280;39866;48.638;-2.020;2022-07-01T00:18:29;101600.72;;;17.26;62.91
53960;BME280;39866;48.638;-2.020;2022-07-01T00:20:54;101603.63;;;17.22;62.94
53960;BME280;39866;48.638;-2.020;2022-07-01T00:23:20;101588.50;;;17.19;63.07
53960;BME280;39866;48.638;-2.020;2022-07-01T00:25:45;101594.63;;;17.23;63.32
53960;BME280;39866;48.638;-2.020;2022-07-01T00:28:11;101594.66;;;17.21;63.31
53960;BME280;39866;48.638;-2.020;2022-07-01T00:30:37;101588.50;;;17.19;63.63
53960;BME280;39866;48.638;-2.020;2022-07-01T00:33:03;101595.22;;;17.29;63.25
53960;BME280;39866;48.638;-2.020;2022-07-01T00:35:28;101594.88;;;17.17;62.44
53960;BME280;39866;48.638;-2.020;2022-07-01T00:37:54;101589.56;;;17.15;63.26
53960;BME280;39866;48.638;-2.020;2022-07-01T00:40:19;101587.88;;;17.13;62.95
53960;BME280;39866;48.638;-2.020;2022-07-01T00:42:45;101593.56;;;17.05;63.16
53960;BME280;39866;48.638;-2.020;2022-07-01T00:45:11;101596.34;;;17.03;62.94
53960;BME280;39866;48.638;-2.020;2022-07-01T00:47:37;101598.28;;;17.00;63.02
53960;BME280;39866;48.638;-2.020;2022-07-01T00:50:13;101601.09;;;16.97;63.49
53960;BME280;39866;48.638;-2.020;2022-07-01T00:52:40;101600.28;;;16.95;63.38
53960;BME280;39866;48.638;-2.020;2022-07-01T00:55:08;101604.84;;;16.93;63.48
53960;BME280;39866;48.638;-2.020;2022-07-01T00:57:35;101597.09;;;16.85;63.33
53960;BME280;39866;48.638;-2.020;2022-07-01T01:00:07;101606.59;;;16.94;63.45
53960;BME280;39866;48.638;-2.020;2022-07-01T01:02:33;101594.09;;;16.93;63.98
53960;BME280;39866;48.638;-2.020;2022-07-01T01:04:59;101601.97;;;16.97;63.97
53960;BME280;39866;48.638;-2.020;2022-07-01T01:07:24;101595.66;;;16.98;64.12
53960;BME280;39866;48.638;-2.020;2022-07-01T01:09:50;101600.88;;;17.01;64.08
53960;BME280;39866;48.638;-2.020;2022-07-01T01:12:16;101603.53;;;17.03;63.26
53960;BME280;39866;48.638;-2.020;2022-07-01T01:14:49;101604.44;;;17.02;64.17
53960;BME280;39866;48.638;-2.020;2022-07-01T01:17:16;101608.09;;;17.01;63.85
53960;BME280;39866;48.638;-2.020;2022-07-01T01:19:43;101608.38;;;16.95;64.41
53960;BME280;39866;48.638;-2.020;2022-07-01T01:22:09;101609.16;;;16.97;63.78
53960;BME280;39866;48.638;-2.020;2022-07-01T01:24:38;101609.28;;;16.94;64.09
53960;BME280;39866;48.638;-2.020;2022-07-01T01:27:04;101615.56;;;16.94;64.40
53960;BME280;39866;48.638;-2.020;2022-07-01T01:29:30;101605.03;;;16.88;64.12
53960;BME280;39866;48.638;-2.020;2022-07-01T01:31:55;101620.31;;;16.88;64.14
53960;BME280;39866;48.638;-2.020;2022-07-01T01:34:20;101618.69;;;16.83;64.08
53960;BME280;39866;48.638;-2.020;2022-07-01T01:36:46;101609.63;;;16.86;64.74
53960;BME280;39866;48.638;-2.020;2022-07-01T01:39:11;101615.69;;;16.91;64.62
53960;BME280;39866;48.638;-2.020;2022-07-01T01:41:43;101626.47;;;16.90;64.29
53960;BME280;39866;48.638;-2.020;2022-07-01T01:44:08;101628.25;;;16.91;63.79
53960;BME280;39866;48.638;-2.020;2022-07-01T01:46:34;101618.41;;;16.90;64.43
53960;BME280;39866;48.638;-2.020;2022-07-01T01:49:00;101623.00;;;16.88;64.27
53960;BME280;39866;48.638;-2.020;2022-07-01T01:51:26;101622.25;;;16.84;63.85
53960;BME280;39866;48.638;-2.020;2022-07-01T01:53:52;101627.13;;;16.74;63.62
53960;BME280;39866;48.638;-2.020;2022-07-01T01:56:17;101611.19;;;16.68;63.89
53960;BME280;39866;48.638;-2.020;2022-07-01T01:58:43;101624.75;;;16.65;64.30
53960;BME280;39866;48.638;-2.020;2022-07-01T02:01:10;101618.50;;;16.65;64.14
53960;BME280;39866;48.638;-2.020;2022-07-01T02:03:36;101621.00;;;16.69;64.67
53960;BME280;39866;48.638;-2.020;2022-07-01T02:06:03;101623.75;;;16.68;64.62
53960;BME280;39866;48.638;-2.020;2022-07-01T02:08:28;101625.69;;;16.64;64.21
53960;BME280;39866;48.638;-2.020;2022-07-01T02:10:53;101618.66;;;16.62;64.32
53960;BME280;39866;48.638;-2.020;2022-07-01T02:13:19;101618.75;;;16.58;64.26
53960;BME280;39866;48.638;-2.020;2022-07-01T02:15:44;101627.78;;;16.57;64.46
53960;BME280;39866;48.638;-2.020;2022-07-01T02:18:10;101618.88;;;16.55;64.09
53960;BME280;39866;48.638;-2.020;2022-07-01T02:20:35;101625.38;;;16.50;64.11
53960;BME280;39866;48.638;-2.020;2022-07-01T02:23:00;101622.72;;;16.48;64.70
53960;BME280;39866;48.638;-2.020;2022-07-01T02:25:26;101617.44;;;16.47;64.38
53960;BME280;39866;48.638;-2.020;2022-07-01T02:27:51;101628.25;;;16.45;64.16
53960;BME280;39866;48.638;-2.020;2022-07-01T02:30:16;101624.66;;;16.45;63.98
53960;BME280;39866;48.638;-2.020;2022-07-01T02:32:42;101621.06;;;16.46;64.32
53960;BME280;39866;48.638;-2.020;2022-07-01T02:35:08;101622.72;;;16.48;64.00
53960;BME280;39866;48.638;-2.020;2022-07-01T02:37:34;101623.69;;;16.47;64.18
53960;BME280;39866;48.638;-2.020;2022-07-01T02:39:59;101619.25;;;16.46;64.13
53960;BME280;39866;48.638;-2.020;2022-07-01T02:42:25;101623.84;;;16.43;63.81
53960;BME280;39866;48.638;-2.020;2022-07-01T02:44:54;101629.06;;;16.47;64.49
53960;BME280;39866;48.638;-2.020;2022-07-01T02:47:21;101628.19;;;16.47;64.15
53960;BME280;39866;48.638;-2.020;2022-07-01T02:49:46;101634.59;;;16.43;63.94
53960;BME280;39866;48.638;-2.020;2022-07-01T02:52:12;101622.91;;;16.44;63.94
53960;BME280;39866;48.638;-2.020;2022-07-01T02:54:37;101635.56;;;16.42;63.89
53960;BME280;39866;48.638;-2.020;2022-07-01T02:57:03;101632.91;;;16.40;64.00
53960;BME280;39866;48.638;-2.020;2022-07-01T02:59:29;101637.41;;;16.40;63.92
53960;BME280;39866;48.638;-2.020;2022-07-01T03:01:54;101635.84;;;16.34;63.38
53960;BME280;39866;48.638;-2.020;2022-07-01T03:04:20;101637.78;;;16.30;64.57
53960;BME280;39866;48.638;-2.020;2022-07-01T03:06:45;101634.25;;;16.28;63.84
53960;BME280;39866;48.638;-2.020;2022-07-01T03:09:10;101624.50;;;16.26;64.23
53960;BME280;39866;48.638;-2.020;2022-07-01T03:11:36;101634.25;;;16.28;63.89
53960;BME280;39866;48.638;-2.020;2022-07-01T03:14:01;101637.06;;;16.25;64.11
53960;BME280;39866;48.638;-2.020;2022-07-01T03:16:27;101632.50;;;16.27;63.95
53960;BME280;39866;48.638;-2.020;2022-07-01T03:18:52;101639.63;;;16.28;63.98
53960;BME280;39866;48.638;-2.020;2022-07-01T03:21:17;101647.75;;;16.27;64.22
53960;BME280;39866;48.638;-2.020;2022-07-01T03:23:43;101649.41;;;16.31;64.32
53960;BME280;39866;48.638;-2.020;2022-07-01T03:26:08;101650.38;;;16.28;64.05
53960;BME280;39866;48.638;-2.020;2022-07-01T03:28:33;101648.72;;;16.24;63.91
53960;BME280;39866;48.638;-2.020;2022-07-01T03:31:00;101654.19;;;16.23;63.92
53960;BME280;39866;48.638;-2.020;2022-07-01T03:33:26;101664.22;;;16.18;64.65
53960;BME280;39866;48.638;-2.020;2022-07-01T03:35:51;101659.81;;;16.17;64.76
53960;BME280;39866;48.638;-2.020;2022-07-01T03:38:16;101659.91;;;16.14;64.42
53960;BME280;39866;48.638;-2.020;2022-07-01T03:40:42;101658.19;;;16.11;64.41
53960;BME280;39866;48.638;-2.020;2022-07-01T03:43:07;101634.66;;;15.94;64.43
53960;BME280;39866;48.638;-2.020;2022-07-01T03:45:33;101662.69;;;16.10;64.21
53960;BME280;39866;48.638;-2.020;2022-07-01T03:47:58;101655.59;;;16.09;64.43
53960;BME280;39866;48.638;-2.020;2022-07-01T03:50:24;101671.59;;;16.13;64.67
53960;BME280;39866;48.638;-2.020;2022-07-01T03:52:50;101663.69;;;16.08;64.37
53960;BME280;39866;48.638;-2.020;2022-07-01T03:55:34;101667.38;;;16.05;64.41
53960;BME280;39866;48.638;-2.020;2022-07-01T03:58:00;101670.09;;;16.04;64.57
53960;BME280;39866;48.638;-2.020;2022-07-01T04:00:25;101674.56;;;16.05;64.63
53960;BME280;39866;48.638;-2.020;2022-07-01T04:02:51;101665.56;;;16.06;64.82
53960;BME280;39866;48.638;-2.020;2022-07-01T04:05:16;101671.03;;;16.03;64.60
53960;BME280;39866;48.638;-2.020;2022-07-01T04:07:41;101667.41;;;16.04;64.75
53960;BME280;39866;48.638;-2.020;2022-07-01T04:10:07;101674.66;;;16.02;64.82
53960;BME280;39866;48.638;-2.020;2022-07-01T04:12:32;101673.50;;;16.09;64.92
53960;BME280;39866;48.638;-2.020;2022-07-01T04:14:58;101672.84;;;16.02;64.63
53960;BME280;39866;48.638;-2.020;2022-07-01T04:17:23;101671.88;;;16.05;65.00
53960;BME280;39866;48.638;-2.020;2022-07-01T04:19:48;101669.06;;;16.08;65.25
53960;BME280;39866;48.638;-2.020;2022-07-01T04:22:14;101666.31;;;16.09;64.61
53960;BME280;39866;48.638;-2.020;2022-07-01T04:24:58;101679.75;;;16.09;64.96
53960;BME280;39866;48.638;-2.020;2022-07-01T04:27:23;101679.50;;;16.16;65.79
53960;BME280;39866;48.638;-2.020;2022-07-01T04:29:49;101691.88;;;16.21;65.78
53960;BME280;39866;48.638;-2.020;2022-07-01T04:32:14;101684.59;;;16.23;65.30
53960;BME280;39866;48.638;-2.020;2022-07-01T04:34:39;101689.88;;;16.26;65.05
53960;BME280;39866;48.638;-2.020;2022-07-01T04:37:05;101692.75;;;16.22;65.01
53960;BME280;39866;48.638;-2.020;2022-07-01T04:39:30;101692.19;;;16.12;64.46
53960;BME280;39866;48.638;-2.020;2022-07-01T04:41:56;101694.75;;;16.15;65.25
53960;BME280;39866;48.638;-2.020;2022-07-01T04:44:32;101692.03;;;16.17;64.83
53960;BME280;39866;48.638;-2.020;2022-07-01T04:46:58;101694.84;;;16.14;65.06
53960;BME280;39866;48.638;-2.020;2022-07-01T04:49:24;101688.69;;;16.10;64.99
53960;BME280;39866;48.638;-2.020;2022-07-01T04:51:49;101696.84;;;16.07;64.93
53960;BME280;39866;48.638;-2.020;2022-07-01T04:54:15;101697.78;;;16.06;65.51
53960;BME280;39866;48.638;-2.020;2022-07-01T04:56:41;101699.38;;;16.12;65.07
53960;BME280;39866;48.638;-2.020;2022-07-01T04:59:06;101705.69;;;16.10;65.07
53960;BME280;39866;48.638;-2.020;2022-07-01T05:01:32;101695.59;;;16.17;65.79
53960;BME280;39866;48.638;-2.020;2022-07-01T05:03:58;101702.47;;;16.24;66.35
53960;BME280;39866;48.638;-2.020;2022-07-01T05:06:24;101693.50;;;16.25;65.23
53960;BME280;39866;48.638;-2.020;2022-07-01T05:08:49;101704.19;;;16.27;64.84
53960;BME280;39866;48.638;-2.020;2022-07-01T05:11:15;101699.06;;;16.21;64.12
53960;BME280;39866;48.638;-2.020;2022-07-01T05:13:40;101711.47;;;16.23;64.95
53960;BME280;39866;48.638;-2.020;2022-07-01T05:16:06;101704.34;;;16.22;64.85
53960;BME280;39866;48.638;-2.020;2022-07-01T05:18:34;101698.00;;;16.25;65.11
53960;BME280;39866;48.638;-2.020;2022-07-01T05:21:29;101696.19;;;16.25;64.91
53960;BME280;39866;48.638;-2.020;2022-07-01T05:24:13;101702.47;;;16.24;64.60
53960;BME280;39866;48.638;-2.020;2022-07-01T05:26:38;101703.13;;;16.31;65.78
53960;BME280;39866;48.638;-2.020;2022-07-01T05:29:04;101701.16;;;16.36;64.96
53960;BME280;39866;48.638;-2.020;2022-07-01T05:31:29;101708.22;;;16.39;64.87
53960;BME280;39866;48.638;-2.020;2022-07-01T05:33:55;101711.97;;;16.34;64.56
53960;BME280;39866;48.638;-2.020;2022-07-01T05:36:20;101707.63;;;16.30;64.59
53960;BME280;39866;48.638;-2.020;2022-07-01T05:38:46;101710.22;;;16.33;64.82
53960;BME280;39866;48.638;-2.020;2022-07-01T05:41:12;101710.16;;;16.35;65.08
53960;BME280;39866;48.638;-2.020;2022-07-01T05:43:38;101713.72;;;16.35;64.81
53960;BME280;39866;48.638;-2.020;2022-07-01T05:46:03;101714.75;;;16.31;64.56
53960;BME280;39866;48.638;-2.020;2022-07-01T05:48:29;101720.03;;;16.34;65.32
53960;BME280;39866;48.638;-2.020;2022-07-01T05:50:54;101729.81;;;16.37;64.79
53960;BME280;39866;48.638;-2.020;2022-07-01T05:53:20;101729.25;;;16.27;65.42
53960;BME280;39866;48.638;-2.020;2022-07-01T05:55:46;101738.38;;;16.47;65.25
53960;BME280;39866;48.638;-2.020;2022-07-01T05:58:12;101742.78;;;16.49;64.98
53960;BME280;39866;48.638;-2.020;2022-07-01T06:00:38;101742.59;;;16.54;65.06
53960;BME280;39866;48.638;-2.020;2022-07-01T06:03:07;101746.09;;;16.56;64.65
53960;BME280;39866;48.638;-2.020;2022-07-01T06:05:32;101746.16;;;16.54;64.14
53960;BME280;39866;48.638;-2.020;2022-07-01T06:07:57;101749.47;;;16.61;64.64
53960;BME280;39866;48.638;-2.020;2022-07-01T06:10:23;101746.88;;;16.59;64.54
53960;BME280;39866;48.638;-2.020;2022-07-01T06:12:48;101745.88;;;16.62;64.53
53960;BME280;39866;48.638;-2.020;2022-07-01T06:15:14;101745.63;;;16.68;64.58
53960;BME280;39866;48.638;-2.020;2022-07-01T06:17:40;101748.22;;;16.71;64.96
53960;BME280;39866;48.638;-2.020;2022-07-01T06:20:07;101748.06;;;16.76;64.49
53960;BME280;39866;48.638;-2.020;2022-07-01T06:22:33;101749.88;;;16.75;64.00
53960;BME280;39866;48.638;-2.020;2022-07-01T06:24:59;101748.00;;;16.77;64.53
53960;BME280;39866;48.638;-2.020;2022-07-01T06:27:25;101755.16;;;16.78;64.11
53960;BME280;39866;48.638;-2.020;2022-07-01T06:29:51;101755.19;;;16.77;64.47
53960;BME280;39866;48.638;-2.020;2022-07-01T06:32:17;101760.47;;;16.80;63.99
53960;BME280;39866;48.638;-2.020;2022-07-01T06:34:42;101756.72;;;16.84;64.38
53960;BME280;39866;48.638;-2.020;2022-07-01T06:37:07;101762.97;;;16.84;63.97
53960;BME280;39866;48.638;-2.020;2022-07-01T06:39:33;101758.47;;;16.85;63.91
53960;BME280;39866;48.638;-2.020;2022-07-01T06:41:58;101762.75;;;16.91;64.04
53960;BME280;39866;48.638;-2.020;2022-07-01T06:44:24;101767.09;;;16.93;63.96
53960;BME280;39866;48.638;-2.020;2022-07-01T06:46:49;101763.53;;;16.93;63.47
53960;BME280;39866;48.638;-2.020;2022-07-01T06:49:14;101767.00;;;16.96;63.88
53960;BME280;39866;48.638;-2.020;2022-07-01T06:51:40;101759.75;;;16.98;63.75
53960;BME280;39866;48.638;-2.020;2022-07-01T06:54:06;101765.75;;;17.05;63.48
53960;BME280;39866;48.638;-2.020;2022-07-01T06:56:31;101764.00;;;17.04;63.33
53960;BME280;39866;48.638;-2.020;2022-07-01T06:58:57;101770.25;;;17.04;63.37
53960;BME280;39866;48.638;-2.020;2022-07-01T07:01:22;101774.78;;;17.04;63.22
53960;BME280;39866;48.638;-2.020;2022-07-01T07:03:48;101777.34;;;17.07;63.46
53960;BME280;39866;48.638;-2.020;2022-07-01T07:06:13;101772.97;;;17.04;63.22
53960;BME280;39866;48.638;-2.020;2022-07-01T07:08:39;101782.72;;;17.07;63.10
53960;BME280;39866;48.638;-2.020;2022-07-01T07:11:04;101778.16;;;17.09;62.84
53960;BME280;39866;48.638;-2.020;2022-07-01T07:13:30;101780.72;;;17.12;62.91
53960;BME280;39866;48.638;-2.020;2022-07-01T07:15:56;101781.53;;;17.14;62.83
53960;BME280;39866;48.638;-2.020;2022-07-01T07:18:21;101786.03;;;17.14;62.71
53960;BME280;39866;48.638;-2.020;2022-07-01T07:20:46;101783.50;;;17.11;62.53
53960;BME280;39866;48.638;-2.020;2022-07-01T07:23:15;101788.63;;;17.17;62.48
53960;BME280;39866;48.638;-2.020;2022-07-01T07:25:40;101792.28;;;17.14;62.23
53960;BME280;39866;48.638;-2.020;2022-07-01T07:28:06;101789.66;;;17.13;62.16
53960;BME280;39866;48.638;-2.020;2022-07-01T07:30:31;101790.53;;;17.13;61.98
53960;BME280;39866;48.638;-2.020;2022-07-01T07:32:57;101784.28;;;17.13;62.23
53960;BME280;39866;48.638;-2.020;2022-07-01T07:35:22;101794.00;;;17.17;62.44
53960;BME280;39866;48.638;-2.020;2022-07-01T07:37:48;101784.06;;;17.19;62.49
53960;BME280;39866;48.638;-2.020;2022-07-01T07:40:13;101784.00;;;17.20;62.06
53960;BME280;39866;48.638;-2.020;2022-07-01T07:42:43;101789.56;;;17.16;62.34
53960;BME280;39866;48.638;-2.020;2022-07-01T07:45:10;101787.63;;;17.19;62.14
53960;BME280;39866;48.638;-2.020;2022-07-01T07:47:36;101775.16;;;17.17;62.24
53960;BME280;39866;48.638;-2.020;2022-07-01T07:50:03;101788.44;;;17.21;61.64
53960;BME280;39866;48.638;-2.020;2022-07-01T07:52:28;101785.63;;;17.24;61.71
53960;BME280;39866;48.638;-2.020;2022-07-01T07:54:54;101790.91;;;17.27;61.60
53960;BME280;39866;48.638;-2.020;2022-07-01T07:57:19;101795.22;;;17.31;61.04
53960;BME280;39866;48.638;-2.020;2022-07-01T07:59:45;101793.22;;;17.37;61.25
53960;BME280;39866;48.638;-2.020;2022-07-01T08:02:11;101793.97;;;17.40;60.92
53960;BME280;39866;48.638;-2.020;2022-07-01T08:04:36;101803.84;;;17.40;61.13
53960;BME280;39866;48.638;-2.020;2022-07-01T08:07:01;101794.84;;;17.41;60.72
53960;BME280;39866;48.638;-2.020;2022-07-01T08:09:27;101795.72;;;17.41;60.26
53960;BME280;39866;48.638;-2.020;2022-07-01T08:11:53;101792.91;;;17.44;60.01
53960;BME280;39866;48.638;-2.020;2022-07-01T08:14:18;101787.31;;;17.49;59.67
53960;BME280;39866;48.638;-2.020;2022-07-01T08:16:43;101786.38;;;17.50;58.31
53960;BME280;39866;48.638;-2.020;2022-07-01T08:19:09;101786.34;;;17.51;57.06
53960;BME280;39866;48.638;-2.020;2022-07-01T08:21:34;101795.09;;;17.56;57.56
53960;BME280;39866;48.638;-2.020;2022-07-01T08:24:00;101790.50;;;17.58;58.00
53960;BME280;39866;48.638;-2.020;2022-07-01T08:26:25;101802.09;;;17.61;57.51
53960;BME280;39866;48.638;-2.020;2022-07-01T08:28:50;101791.25;;;17.62;57.08
53960;BME280;39866;48.638;-2.020;2022-07-01T08:31:16;101796.44;;;17.67;56.84
53960;BME280;39866;48.638;-2.020;2022-07-01T08:33:42;101794.50;;;17.70;56.65
53960;BME280;39866;48.638;-2.020;2022-07-01T08:36:09;101783.84;;;17.67;56.54
53960;BME280;39866;48.638;-2.020;2022-07-01T08:38:35;101793.56;;;17.71;56.70
53960;BME280;39866;48.638;-2.020;2022-07-01T08:41:01;101790.81;;;17.73;56.77
53960;BME280;39866;48.638;-2.020;2022-07-01T08:43:28;101787.97;;;17.77;55.64
53960;BME280;39866;48.638;-2.020;2022-07-01T08:45:54;101795.06;;;17.80;54.85
53960;BME280;39866;48.638;-2.020;2022-07-01T08:48:20;101789.38;;;17.86;53.79
53960;BME280;39866;48.638;-2.020;2022-07-01T08:50:46;101786.38;;;17.94;53.34
53960;BME280;39866;48.638;-2.020;2022-07-01T08:53:12;101788.88;;;17.98;53.80
53960;BME280;39866;48.638;-2.020;2022-07-01T08:55:38;101788.53;;;18.06;53.90
53960;BME280;39866;48.638;-2.020;2022-07-01T08:58:23;101795.56;;;18.10;54.10
53960;BME280;39866;48.638;-2.020;2022-07-01T09:00:49;101803.44;;;18.15;54.23
53960;BME280;39866;48.638;-2.020;2022-07-01T09:03:15;101804.19;;;18.18;53.71
53960;BME280;39866;48.638;-2.020;2022-07-01T09:05:48;101804.06;;;18.21;53.38
53960;BME280;39866;48.638;-2.020;2022-07-01T09:08:14;101796.88;;;18.20;52.56
53960;BME280;39866;48.638;-2.020;2022-07-01T09:10:39;101785.31;;;18.18;52.61
53960;BME280;39866;48.638;-2.020;2022-07-01T09:13:08;101789.75;;;18.19;52.63
53960;BME280;39866;48.638;-2.020;2022-07-01T09:15:37;101786.81;;;18.25;51.49
53960;BME280;39866;48.638;-2.020;2022-07-01T09:18:06;101782.00;;;18.32;52.28
53960;BME280;39866;48.638;-2.020;2022-07-01T09:20:36;101786.38;;;18.35;52.26
53960;BME280;39866;48.638;-2.020;2022-07-01T09:23:10;101784.56;;;18.35;52.30
53960;BME280;39866;48.638;-2.020;2022-07-01T09:25:40;101781.00;;;18.35;52.46
53960;BME280;39866;48.638;-2.020;2022-07-01T09:30:38;101781.66;;;18.40;52.59
53960;BME280;39866;48.638;-2.020;2022-07-01T09:33:24;101782.28;;;18.46;52.39
53960;BME280;39866;48.638;-2.020;2022-07-01T09:35:52;101775.84;;;18.49;52.22
53960;BME280;39866;48.638;-2.020;2022-07-01T09:38:19;101773.22;;;18.47;52.41
53960;BME280;39866;48.638;-2.020;2022-07-01T09:43:28;101779.56;;;18.46;51.10
53960;BME280;39866;48.638;-2.020;2022-07-01T09:46:06;101779.09;;;18.37;51.42
53960;BME280;39866;48.638;-2.020;2022-07-01T09:50:57;101786.38;;;18.55;51.69
53960;BME280;39866;48.638;-2.020;2022-07-01T09:53:22;101777.94;;;18.63;51.00
53960;BME280;39866;48.638;-2.020;2022-07-01T09:55:48;101782.84;;;18.73;51.05
53960;BME280;39866;48.638;-2.020;2022-07-01T09:58:13;101784.31;;;18.80;51.03
53960;BME280;39866;48.638;-2.020;2022-07-01T10:00:40;101784.97;;;18.86;52.34
53960;BME280;39866;48.638;-2.020;2022-07-01T10:03:06;101790.22;;;18.89;51.91
53960;BME280;39866;48.638;-2.020;2022-07-01T10:05:37;101787.66;;;18.86;52.13
53960;BME280;39866;48.638;-2.020;2022-07-01T10:08:24;101787.53;;;18.89;52.99
53960;BME280;39866;48.638;-2.020;2022-07-01T10:11:01;101788.50;;;18.88;55.39
53960;BME280;39866;48.638;-2.020;2022-07-01T10:13:31;101796.59;;;18.88;56.20
53960;BME280;39866;48.638;-2.020;2022-07-01T10:15:59;101802.94;;;18.87;56.60
53960;BME280;39866;48.638;-2.020;2022-07-01T10:18:27;101799.16;;;18.91;57.01
53960;BME280;39866;48.638;-2.020;2022-07-01T10:20:54;101790.31;;;18.87;56.92
53960;BME280;39866;48.638;-2.020;2022-07-01T10:23:22;101797.38;;;18.90;56.77
53960;BME280;39866;48.638;-2.020;2022-07-01T10:25:49;101806.94;;;18.97;57.21
53960;BME280;39866;48.638;-2.020;2022-07-01T10:31:03;101800.88;;;18.92;56.96
53960;BME280;39866;48.638;-2.020;2022-07-01T10:42:16;101804.53;;;18.91;56.73
53960;BME280;39866;48.638;-2.020;2022-07-01T10:44:24;101812.69;;;18.89;55.67
53960;BME280;39866;48.638;-2.020;2022-07-01T10:47:16;101811.59;;;18.93;56.03
53960;BME280;39866;48.638;-2.020;2022-07-01T11:04:58;101815.34;;;18.91;56.20
53960;BME280;39866;48.638;-2.020;2022-07-01T11:07:27;101812.78;;;18.88;55.21
53960;BME280;39866;48.638;-2.020;2022-07-01T11:09:53;101816.47;;;18.85;55.82
53960;BME280;39866;48.638;-2.020;2022-07-01T11:12:20;101813.13;;;18.80;56.69
53960;BME280;39866;48.638;-2.020;2022-07-01T11:14:46;101805.25;;;18.75;57.03
53960;BME280;39866;48.638;-2.020;2022-07-01T11:17:11;101806.25;;;18.73;57.19
53960;BME280;39866;48.638;-2.020;2022-07-01T11:19:36;101814.41;;;18.71;56.38
53960;BME280;39866;48.638;-2.020;2022-07-01T11:22:03;101807.28;;;18.70;57.13
53960;BME280;39866;48.638;-2.020;2022-07-01T11:24:29;101819.81;;;18.71;56.14
53960;BME280;39866;48.638;-2.020;2022-07-01T11:27:07;101814.41;;;18.71;57.12
53960;BME280;39866;48.638;-2.020;2022-07-01T11:29:33;101816.16;;;18.72;57.33
53960;BME280;39866;48.638;-2.020;2022-07-01T11:31:59;101814.75;;;19.03;56.15
53960;BME280;39866;48.638;-2.020;2022-07-01T11:34:27;101821.47;;;19.13;55.90
53960;BME280;39866;48.638;-2.020;2022-07-01T11:36:54;101815.78;;;19.19;55.96
53960;BME280;39866;48.638;-2.020;2022-07-01T11:39:38;101818.25;;;19.24;54.96
53960;BME280;39866;48.638;-2.020;2022-07-01T11:42:06;101819.34;;;19.01;55.39
53960;BME280;39866;48.638;-2.020;2022-07-01T11:44:37;101820.50;;;19.14;55.25
53960;BME280;39866;48.638;-2.020;2022-07-01T11:47:08;101819.72;;;19.12;55.19
53960;BME280;39866;48.638;-2.020;2022-07-01T11:49:42;101819.13;;;19.05;55.11
53960;BME280;39866;48.638;-2.020;2022-07-01T11:52:07;101823.66;;;19.05;55.61
53960;BME280;39866;48.638;-2.020;2022-07-01T11:54:37;101825.13;;;19.12;55.16
53960;BME280;39866;48.638;-2.020;2022-07-01T11:59:43;101819.81;;;19.11;55.18
53960;BME280;39866;48.638;-2.020;2022-07-01T12:02:11;101827.00;;;19.10;55.22
53960;BME280;39866;48.638;-2.020;2022-07-01T12:04:38;101828.47;;;19.17;53.77
53960;BME280;39866;48.638;-2.020;2022-07-01T12:07:04;101827.00;;;19.29;54.54
53960;BME280;39866;48.638;-2.020;2022-07-01T12:09:30;101824.09;;;19.34;54.18
53960;BME280;39866;48.638;-2.020;2022-07-01T12:11:56;101827.88;;;19.29;53.10
53960;BME280;39866;48.638;-2.020;2022-07-01T12:14:30;101826.13;;;19.28;53.19
53960;BME280;39866;48.638;-2.020;2022-07-01T12:16:58;101833.16;;;19.33;53.13
53960;BME280;39866;48.638;-2.020;2022-07-01T12:19:44;101818.81;;;19.30;53.18
53960;BME280;39866;48.638;-2.020;2022-07-01T12:24:45;101834.97;;;19.32;53.99
53960;BME280;39866;48.638;-2.020;2022-07-01T12:27:10;101832.41;;;19.29;54.12
53960;BME280;39866;48.638;-2.020;2022-07-01T12:32:14;101836.63;;;19.35;54.70
53960;BME280;39866;48.638;-2.020;2022-07-01T12:34:41;101843.63;;;19.39;54.18
53960;BME280;39866;48.638;-2.020;2022-07-01T12:37:11;101837.31;;;19.40;55.03
53960;BME280;39866;48.638;-2.020;2022-07-01T12:42:07;101835.91;;;19.50;52.92
53960;BME280;39866;48.638;-2.020;2022-07-01T12:44:33;101841.75;;;19.60;54.02
53960;BME280;39866;48.638;-2.020;2022-07-01T12:46:58;101846.63;;;19.70;53.80
53960;BME280;39866;48.638;-2.020;2022-07-01T12:49:25;101841.88;;;19.75;53.71
53960;BME280;39866;48.638;-2.020;2022-07-01T12:51:51;101847.56;;;19.88;53.02
53960;BME280;39866;48.638;-2.020;2022-07-01T12:54:34;101839.47;;;19.88;53.04
53960;BME280;39866;48.638;-2.020;2022-07-01T12:57:02;101844.78;;;19.90;52.83
53960;BME280;39866;48.638;-2.020;2022-07-01T12:59:27;101843.03;;;19.89;53.63
53960;BME280;39866;48.638;-2.020;2022-07-01T13:01:53;101844.06;;;19.86;53.30
53960;BME280;39866;48.638;-2.020;2022-07-01T13:04:25;101846.13;;;19.81;53.87
53960;BME280;39866;48.638;-2.020;2022-07-01T13:06:50;101843.66;;;19.76;54.75
53960;BME280;39866;48.638;-2.020;2022-07-01T13:09:15;101846.25;;;19.78;55.07
53960;BME280;39866;48.638;-2.020;2022-07-01T13:11:41;101842.44;;;19.82;55.22
53960;BME280;39866;48.638;-2.020;2022-07-01T13:14:06;101855.31;;;20.13;52.30
53960;BME280;39866;48.638;-2.020;2022-07-01T13:16:31;101843.63;;;20.30;52.14
53960;BME280;39866;48.638;-2.020;2022-07-01T13:18:57;101849.41;;;20.40;52.33
53960;BME280;39866;48.638;-2.020;2022-07-01T13:21:22;101842.59;;;20.50;51.97
53960;BME280;39866;48.638;-2.020;2022-07-01T13:23:47;101846.50;;;20.62;50.82